Time;durP1;ratioP1;P1;durP2;ratioP2;P2;SDS_P1;SDS_P2;PMS_P1;PMS_P2;Temp;Humidity;BMP_temperature;BMP_pressure;BME280_temperature;BME280_humidity;BME280_pressure;Samples;Min_cycle;Max_cycle;Signal;HPM_P1;HPM_P2
2023/04/27 00:01:33;;;;;;;5.03;1.97;;;4.70;99.90;;;;;;5072939;28;20131;-40
2023/04/27 00:03:59;;;;;;;4.80;2.00;;;4.70;99.90;;;;;;5074057;28;20059;-40
2023/04/27 00:06:26;;;;;;;4.70;2.03;;;4.70;99.90;;;;;;5072957;28;20052;-40
2023/04/27 00:08:52;;;;;;;3.80;1.80;;;4.70;99.90;;;;;;5072966;28;20491;-41
2023/04/27 00:11:17;;;;;;;5.47;1.93;;;4.60;99.90;;;;;;5073992;28;20044;-40
2023/04/27 00:13:43;;;;;;;4.73;1.57;;;4.60;99.90;;;;;;5073018;28;20098;-40
2023/04/27 00:16:09;;;;;;;4.43;1.70;;;4.50;99.90;;;;;;5072782;28;20052;-40
2023/04/27 00:18:35;;;;;;;3.77;1.77;;;4.40;99.90;;;;;;5072852;28;20045;-40
2023/04/27 00:21:01;;;;;;;4.63;2.10;;;4.40;99.90;;;;;;5073605;28;20044;-40
2023/04/27 00:23:27;;;;;;;6.77;2.20;;;4.40;99.90;;;;;;5072735;28;20041;-40
2023/04/27 00:25:52;;;;;;;6.70;1.83;;;4.40;99.90;;;;;;5055909;28;20041;-40
2023/04/27 00:28:18;;;;;;;5.10;1.80;;;4.40;99.90;;;;;;5073818;28;20044;-40
2023/04/27 00:30:44;;;;;;;2.83;1.20;;;4.40;99.90;;;;;;5073172;28;20131;-40
2023/04/27 00:33:10;;;;;;;3.03;1.03;;;4.50;99.90;;;;;;5055994;28;20053;-40
2023/04/27 00:35:35;;;;;;;5.10;1.50;;;4.50;99.90;;;;;;5072608;28;20045;-40
2023/04/27 00:38:01;;;;;;;4.03;1.20;;;4.60;99.90;;;;;;5072549;28;20040;-40
2023/04/27 00:40:27;;;;;;;3.30;1.10;;;4.60;99.90;;;;;;5073615;28;20048;-40
2023/04/27 00:42:52;;;;;;;3.23;1.10;;;4.60;99.90;;;;;;5073295;28;20377;-45
2023/04/27 00:45:18;;;;;;;2.53;0.97;;;4.60;99.90;;;;;;5073668;28;20044;-40
2023/04/27 00:47:44;;;;;;;3.60;1.10;;;4.70;99.90;;;;;;5072132;28;20106;-40
2023/04/27 00:50:10;;;;;;;2.55;1.00;;;4.70;99.90;;;;;;5072542;28;20094;-40
2023/04/27 00:52:37;;;;;;;2.95;1.17;;;4.70;99.90;;;;;;5072269;28;20567;-44
2023/04/27 00:55:03;;;;;;;2.15;0.90;;;4.70;99.90;;;;;;5072589;28;20053;-40
2023/04/27 00:57:30;;;;;;;2.42;0.90;;;4.70;99.90;;;;;;5072559;28;20041;-40
2023/04/27 00:59:55;;;;;;;3.05;1.00;;;4.70;99.90;;;;;;5073332;28;20044;-40
2023/04/27 01:02:21;;;;;;;3.10;1.00;;;4.70;99.90;;;;;;5073469;28;20041;-40
2023/04/27 01:04:49;;;;;;;2.10;0.87;;;4.70;99.90;;;;;;5074083;28;20056;-40
2023/04/27 01:07:15;;;;;;;2.78;0.98;;;4.70;99.90;;;;;;5076209;28;20040;-40
2023/04/27 01:09:41;;;;;;;3.03;1.10;;;4.60;99.90;;;;;;5077398;28;20094;-40
2023/04/27 01:12:07;;;;;;;1.90;0.90;;;4.60;99.90;;;;;;5076523;28;20492;-40
2023/04/27 01:14:35;;;;;;;3.08;0.93;;;4.60;99.90;;;;;;5077306;28;20054;-40
2023/04/27 01:17:00;;;;;;;3.28;0.90;;;4.50;99.90;;;;;;5077316;28;20048;-40
2023/04/27 01:19:27;;;;;;;3.13;1.13;;;4.50;99.90;;;;;;5077093;28;20090;-40
2023/04/27 01:21:53;;;;;;;2.63;1.30;;;4.50;99.90;;;;;;5077060;28;20048;-40
2023/04/27 01:24:19;;;;;;;3.23;1.10;;;4.50;99.90;;;;;;5076894;28;20394;-40
2023/04/27 01:26:45;;;;;;;7.10;2.30;;;4.50;99.90;;;;;;5076146;28;20052;-40
2023/04/27 01:29:10;;;;;;;2.67;1.07;;;4.50;99.90;;;;;;5076110;28;20487;-40
2023/04/27 01:31:36;;;;;;;2.87;1.00;;;4.50;99.90;;;;;;5076819;28;20415;-40
2023/04/27 01:34:02;;;;;;;3.23;1.13;;;4.40;99.90;;;;;;5076204;28;20044;-40
2023/04/27 01:36:28;;;;;;;3.45;1.10;;;4.40;99.90;;;;;;5075938;28;20056;-40
2023/04/27 01:38:53;;;;;;;3.07;1.20;;;4.40;99.90;;;;;;5092641;28;20048;-40
2023/04/27 01:41:19;;;;;;;2.23;1.00;;;4.40;99.90;;;;;;5076833;28;20041;-40
2023/04/27 01:43:45;;;;;;;2.90;1.07;;;4.30;99.90;;;;;;5075726;28;20052;-40
2023/04/27 01:46:13;;;;;;;3.80;1.38;;;4.40;99.90;;;;;;5075668;28;20067;-40
2023/04/27 01:48:40;;;;;;;3.08;1.40;;;4.40;99.90;;;;;;5075566;28;20052;-40
2023/04/27 01:51:05;;;;;;;5.68;1.40;;;4.40;99.90;;;;;;5076540;28;20048;-40
2023/04/27 01:53:31;;;;;;;3.77;1.50;;;4.30;99.90;;;;;;5075600;28;20048;-40
2023/04/27 01:55:58;;;;;;;2.90;1.27;;;4.30;99.90;;;;;;5076579;28;20070;-40
2023/04/27 01:58:24;;;;;;;4.57;1.38;;;4.30;99.90;;;;;;5075523;28;20052;-39
2023/04/27 02:00:50;;;;;;;4.33;1.60;;;4.40;99.90;;;;;;5058522;28;20051;-40
2023/04/27 02:03:16;;;;;;;6.50;1.67;;;4.40;99.90;;;;;;5076227;28;20050;-40
2023/04/27 02:05:42;;;;;;;4.13;1.60;;;4.40;99.90;;;;;;5058746;28;20052;-40
2023/04/27 02:08:08;;;;;;;3.07;1.30;;;4.40;99.90;;;;;;5075374;28;20127;-40
2023/04/27 02:10:35;;;;;;;3.10;1.30;;;4.40;99.90;;;;;;5075050;28;20479;-40
2023/04/27 02:13:00;;;;;;;3.03;1.45;;;4.30;99.90;;;;;;5075313;28;20044;-40
2023/04/27 02:15:26;;;;;;;3.70;1.23;;;4.10;99.90;;;;;;5058003;28;20051;-40
2023/04/27 02:17:52;;;;;;;3.33;1.33;;;4.00;99.90;;;;;;5074633;28;20088;-40
2023/04/27 02:20:17;;;;;;;4.87;1.23;;;4.00;99.90;;;;;;5074641;28;20044;-40
2023/04/27 02:22:43;;;;;;;3.90;1.77;;;4.00;99.90;;;;;;5075850;28;20045;-40
2023/04/27 02:25:13;;;;;;;4.07;1.53;;;4.00;99.90;;;;;;5076058;28;20492;-40
2023/04/27 02:27:39;;;;;;;4.20;1.75;;;4.00;99.90;;;;;;5074902;28;20048;-40
2023/04/27 02:30:07;;;;;;;5.40;1.63;;;4.00;99.90;;;;;;5074704;28;20044;-40
2023/04/27 02:32:33;;;;;;;5.28;1.60;;;4.00;99.90;;;;;;5074771;28;20140;-40
2023/04/27 02:34:59;;;;;;;5.22;1.70;;;4.00;99.90;;;;;;5074606;28;20055;-40
2023/04/27 02:37:25;;;;;;;5.55;1.88;;;3.90;99.90;;;;;;5091909;28;20475;-40
2023/04/27 02:39:51;;;;;;;4.38;1.90;;;3.90;99.90;;;;;;5074580;28;20054;-40
2023/04/27 02:42:17;;;;;;;3.67;1.67;;;3.90;99.90;;;;;;5075706;28;20044;-40
2023/04/27 02:44:43;;;;;;;5.40;1.63;;;3.80;99.90;;;;;;5075666;28;20105;-40
2023/04/27 02:47:09;;;;;;;4.53;1.57;;;3.90;99.90;;;;;;5057777;28;20057;-40
2023/04/27 02:49:35;;;;;;;4.35;1.80;;;3.80;99.90;;;;;;5074221;28;20040;-40
2023/04/27 02:52:00;;;;;;;4.60;1.90;;;3.80;99.90;;;;;;5075525;28;20106;-40
2023/04/27 02:54:26;;;;;;;4.23;1.60;;;3.70;99.90;;;;;;5074545;28;20094;-40
2023/04/27 02:56:52;;;;;;;3.00;1.33;;;3.60;99.90;;;;;;5075477;28;20048;-40
2023/04/27 02:59:17;;;;;;;4.57;1.47;;;3.60;99.90;;;;;;5075239;28;20076;-40
2023/04/27 03:01:43;;;;;;;5.93;1.80;;;3.50;99.90;;;;;;5074313;28;20055;-40
2023/04/27 03:04:09;;;;;;;3.57;1.40;;;3.50;99.90;;;;;;5075033;28;20044;-40
2023/04/27 03:06:35;;;;;;;5.93;1.80;;;3.50;99.90;;;;;;5074953;28;20101;-40
2023/04/27 03:09:04;;;;;;;4.70;1.77;;;3.50;99.90;;;;;;5074035;28;20044;-40
2023/04/27 03:11:30;;;;;;;3.60;1.70;;;3.40;99.90;;;;;;5057407;28;20087;-40
2023/04/27 03:13:55;;;;;;;4.95;1.55;;;3.40;99.90;;;;;;5074149;28;20084;-40
2023/04/27 03:16:21;;;;;;;4.00;1.60;;;3.40;99.90;;;;;;5074994;28;20066;-40
2023/04/27 03:18:47;;;;;;;3.38;1.35;;;3.40;99.90;;;;;;5073873;28;20044;-40
2023/04/27 03:21:12;;;;;;;5.17;2.43;;;3.40;99.90;;;;;;5074797;28;20040;-40
2023/04/27 03:23:39;;;;;;;5.23;1.37;;;3.30;99.90;;;;;;5074890;28;20131;-40
2023/04/27 03:26:13;;;;;;;3.20;1.48;;;3.30;99.90;;;;;;5075333;28;20063;-40
2023/04/27 03:28:39;;;;;;;2.90;1.17;;;3.30;99.90;;;;;;5073708;28;20048;-40
2023/04/27 03:31:11;;;;;;;2.90;1.33;;;3.20;99.90;;;;;;5073505;28;20063;-40
2023/04/27 03:33:37;;;;;;;3.60;1.42;;;3.20;99.90;;;;;;5074384;28;20510;-40
2023/04/27 03:36:05;;;;;;;3.78;1.40;;;3.20;99.90;;;;;;5074627;28;20044;-40
2023/04/27 03:38:31;;;;;;;3.63;1.40;;;3.10;99.90;;;;;;5073338;28;20480;-40
2023/04/27 03:40:57;;;;;;;3.53;1.50;;;3.10;99.90;;;;;;5073335;28;20110;-40
2023/04/27 03:43:24;;;;;;;4.05;1.65;;;3.10;99.90;;;;;;5056872;28;20487;-40
2023/04/27 03:45:50;;;;;;;4.38;1.75;;;3.10;99.90;;;;;;5073058;28;20106;-41
2023/04/27 03:48:16;;;;;;;4.53;1.80;;;3.10;99.90;;;;;;5073209;28;20056;-40
2023/04/27 03:50:42;;;;;;;4.15;1.67;;;3.10;99.90;;;;;;5074497;28;20048;-40
2023/04/27 03:53:08;;;;;;;4.70;1.92;;;3.10;99.90;;;;;;5074083;28;20463;-40
2023/04/27 03:55:37;;;;;;;4.90;2.00;;;3.20;99.90;;;;;;5074307;28;20067;-40
2023/04/27 03:58:03;;;;;;;4.85;1.70;;;3.10;99.90;;;;;;5073081;28;20283;-40
2023/04/27 04:00:30;;;;;;;4.18;1.85;;;3.20;99.90;;;;;;5073809;28;20044;-40
2023/04/27 04:02:56;;;;;;;4.05;1.67;;;3.20;99.90;;;;;;5074253;28;20125;-40
2023/04/27 04:05:22;;;;;;;5.47;2.20;;;3.10;99.90;;;;;;5074143;28;20044;-40
2023/04/27 04:07:48;;;;;;;4.57;2.33;;;3.20;99.90;;;;;;5073979;28;20101;-40
2023/04/27 04:10:13;;;;;;;5.33;2.10;;;3.10;99.90;;;;;;5072950;28;20395;-40
2023/04/27 04:12:39;;;;;;;3.83;1.83;;;3.10;99.90;;;;;;5072886;28;20078;-40
2023/04/27 04:15:06;;;;;;;5.70;2.27;;;3.10;99.90;;;;;;5089653;28;20040;-40
2023/04/27 04:17:32;;;;;;;4.65;2.17;;;3.10;99.90;;;;;;5072960;28;20110;-39
2023/04/27 04:19:59;;;;;;;4.18;2.10;;;3.00;99.90;;;;;;5072560;28;20045;-40
2023/04/27 04:22:25;;;;;;;5.22;1.83;;;3.00;99.90;;;;;;5073867;28;20186;-40
2023/04/27 04:24:51;;;;;;;4.80;1.97;;;2.90;99.90;;;;;;5072666;28;20076;-40
2023/04/27 04:27:17;;;;;;;5.73;2.30;;;3.00;99.90;;;;;;5072441;28;20053;-39
2023/04/27 04:29:42;;;;;;;5.87;2.70;;;2.90;99.90;;;;;;5072533;28;20049;-40
2023/04/27 04:32:08;;;;;;;7.23;2.70;;;2.90;99.90;;;;;;5072649;28;20044;-39
2023/04/27 04:34:35;;;;;;;5.70;2.80;;;3.00;99.90;;;;;;5073840;28;20428;-40
2023/04/27 04:37:01;;;;;;;5.78;2.38;;;3.00;99.90;;;;;;5073547;28;20518;-40
2023/04/27 04:39:32;;;;;;;5.80;2.60;;;3.00;99.90;;;;;;5073036;28;20040;-40
2023/04/27 04:41:58;;;;;;;6.13;2.80;;;3.00;99.90;;;;;;5073468;28;20048;-40
2023/04/27 04:44:24;;;;;;;7.13;3.08;;;3.00;99.90;;;;;;5073403;28;20067;-41
2023/04/27 04:46:50;;;;;;;6.90;2.85;;;3.00;99.90;;;;;;5073808;28;20369;-40
2023/04/27 04:49:16;;;;;;;6.78;3.40;;;3.00;99.90;;;;;;5073581;28;20041;-40
2023/04/27 04:51:46;;;;;;;9.00;3.70;;;3.00;99.90;;;;;;5055921;28;20036;-40
2023/04/27 04:54:11;;;;;;;7.10;3.50;;;3.00;99.90;;;;;;5072481;28;20052;-40
2023/04/27 04:56:37;;;;;;;7.47;3.78;;;3.10;99.90;;;;;;5073400;28;20506;-45
2023/04/27 04:59:03;;;;;;;7.67;3.93;;;3.10;99.90;;;;;;5073232;28;20133;-40
2023/04/27 05:01:28;;;;;;;8.27;3.80;;;3.20;99.90;;;;;;5073561;28;20110;-40
2023/04/27 05:03:54;;;;;;;10.03;4.47;;;3.20;99.90;;;;;;5072365;28;20068;-40
2023/04/27 05:06:20;;;;;;;8.00;4.43;;;3.20;99.90;;;;;;5073409;28;20048;-40
2023/04/27 05:08:46;;;;;;;6.65;3.70;;;3.30;99.90;;;;;;5073447;28;20050;-40
2023/04/27 05:11:11;;;;;;;7.43;3.80;;;3.40;99.90;;;;;;5073291;28;20093;-40
2023/04/27 05:13:37;;;;;;;7.53;3.57;;;3.40;99.90;;;;;;5073040;28;20051;-40
2023/04/27 05:16:07;;;;;;;7.23;4.10;;;3.50;99.90;;;;;;5073390;28;20048;-40
2023/04/27 05:18:33;;;;;;;8.18;3.58;;;3.50;99.90;;;;;;5072369;28;20070;-40
2023/04/27 05:20:59;;;;;;;7.47;3.78;;;3.60;99.90;;;;;;5072025;28;20095;-40
2023/04/27 05:23:25;;;;;;;7.87;3.73;;;3.60;99.90;;;;;;5055622;28;20095;-40
2023/04/27 05:25:51;;;;;;;8.03;3.93;;;3.70;99.90;;;;;;5073261;28;20044;-40
2023/04/27 05:28:17;;;;;;;8.00;4.20;;;3.70;99.90;;;;;;5088840;28;20050;-40
2023/04/27 05:30:42;;;;;;;6.40;3.37;;;3.80;99.90;;;;;;5073203;28;20044;-40
2023/04/27 05:33:08;;;;;;;7.18;3.20;;;3.90;99.90;;;;;;5073091;28;20080;-40
2023/04/27 05:35:34;;;;;;;6.90;3.03;;;3.90;99.90;;;;;;5073149;28;20045;-40
2023/04/27 05:38:00;;;;;;;7.33;3.60;;;4.00;99.90;;;;;;5073072;28;20049;-40
2023/04/27 05:40:26;;;;;;;6.23;2.90;;;4.00;99.90;;;;;;5072939;28;20136;-40
2023/04/27 05:42:52;;;;;;;7.13;2.63;;;4.10;99.90;;;;;;5072886;28;20123;-40
2023/04/27 05:45:18;;;;;;;6.10;2.70;;;4.20;99.90;;;;;;5072481;28;20398;-40
2023/04/27 05:47:44;;;;;;;6.07;2.67;;;4.30;99.90;;;;;;5072986;28;20472;-40
2023/04/27 05:50:10;;;;;;;5.73;2.87;;;4.50;99.90;;;;;;5073014;28;20314;-40
2023/04/27 05:52:36;;;;;;;6.05;2.78;;;4.60;99.90;;;;;;5074879;28;20133;-40
2023/04/27 05:55:02;;;;;;;7.27;2.97;;;4.90;99.90;;;;;;5076598;28;20084;-41
2023/04/27 05:57:28;;;;;;;6.82;2.67;;;5.20;99.90;;;;;;5076378;28;20471;-40
2023/04/27 05:59:54;;;;;;;7.20;2.90;;;5.60;99.90;;;;;;5075381;28;20051;-40
2023/04/27 06:02:21;;;;;;;7.67;3.40;;;6.10;99.90;;;;;;5075193;28;20041;-40
2023/04/27 06:04:46;;;;;;;6.30;2.83;;;6.40;99.90;;;;;;5076268;28;20044;-40
2023/04/27 06:07:14;;;;;;;5.60;2.43;;;6.60;99.90;;;;;;5076076;28;20135;-41
2023/04/27 06:09:40;;;;;;;7.05;2.38;;;7.00;99.90;;;;;;5076156;28;20052;-41
2023/04/27 06:12:06;;;;;;;6.45;2.35;;;7.00;99.90;;;;;;5075874;28;20110;-41
2023/04/27 06:14:34;;;;;;;5.32;2.08;;;7.40;99.90;;;;;;5075095;28;20044;-41
2023/04/27 06:17:00;;;;;;;7.28;1.95;;;8.10;99.90;;;;;;5076073;28;20123;-41
2023/04/27 06:19:26;;;;;;;5.30;2.07;;;8.70;99.90;;;;;;5075080;28;20131;-41
2023/04/27 06:21:53;;;;;;;5.13;1.90;;;8.60;99.90;;;;;;5076298;28;20129;-40
2023/04/27 06:24:19;;;;;;;4.78;1.70;;;8.20;99.90;;;;;;5075917;28;20070;-41
2023/04/27 06:26:45;;;;;;;4.73;1.90;;;7.90;99.90;;;;;;5075805;28;20193;-41
2023/04/27 06:29:10;;;;;;;5.47;1.83;;;7.60;99.90;;;;;;5075999;28;20445;-40
2023/04/27 06:31:36;;;;;;;4.53;1.73;;;7.40;99.90;;;;;;5075986;28;20048;-41
2023/04/27 06:34:03;;;;;;;4.23;1.77;;;7.70;99.90;;;;;;5074739;28;20040;-41
2023/04/27 06:36:28;;;;;;;6.88;1.73;;;8.70;99.90;;;;;;5075881;28;20402;-41
2023/04/27 06:38:55;;;;;;;5.00;1.73;;;9.70;99.90;;;;;;5075737;28;20131;-41
2023/04/27 06:41:24;;;;;;;5.20;1.83;;;10.60;99.90;;;;;;5075714;28;20053;-41
2023/04/27 06:43:51;;;;;;;3.70;1.50;;;11.50;99.90;;;;;;5075650;28;20078;-41
2023/04/27 06:46:17;;;;;;;4.50;2.92;;;12.20;99.90;;;;;;5074775;28;20063;-41
2023/04/27 06:48:42;;;;;;;3.30;1.38;;;12.60;99.90;;;;;;5074750;28;20049;-41
2023/04/27 06:51:08;;;;;;;3.90;1.30;;;12.80;99.90;;;;;;5075681;28;20036;-41
2023/04/27 06:53:34;;;;;;;2.80;1.30;;;12.80;99.90;;;;;;5075360;28;20090;-41
2023/04/27 06:56:00;;;;;;;4.00;1.40;;;12.60;99.90;;;;;;5074517;28;20539;-41
2023/04/27 06:58:26;;;;;;;3.47;1.38;;;12.20;99.90;;;;;;5075775;28;20105;-41
2023/04/27 07:00:52;;;;;;;3.73;1.47;;;11.80;99.90;;;;;;5075288;28;20044;-41
2023/04/27 07:03:19;;;;;;;3.40;1.10;;;11.60;99.90;;;;;;5074806;28;20044;-41
2023/04/27 07:05:45;;;;;;;2.95;1.10;;;11.50;99.90;;;;;;5075053;28;20048;-40
2023/04/27 07:08:11;;;;;;;2.60;1.13;;;11.40;99.90;;;;;;5075007;28;20503;-41
2023/04/27 07:10:37;;;;;;;4.80;1.02;;;11.50;99.90;;;;;;5074974;28;20041;-41
2023/04/27 07:13:03;;;;;;;2.70;0.88;;;11.50;99.90;;;;;;5075099;28;20480;-41
2023/04/27 07:15:32;;;;;;;3.45;0.98;;;11.50;99.90;;;;;;5090966;28;20411;-41
2023/04/27 07:17:58;;;;;;;3.63;1.20;;;11.70;99.90;;;;;;5074844;28;20048;-41
2023/04/27 07:20:24;;;;;;;3.07;1.17;;;11.60;99.90;;;;;;5074846;28;20040;-41
2023/04/27 07:22:50;;;;;;;3.20;1.17;;;11.70;99.90;;;;;;5074442;28;20048;-41
2023/04/27 07:25:16;;;;;;;2.40;0.93;;;11.90;99.90;;;;;;5075045;28;20480;-41
2023/04/27 07:27:42;;;;;;;;;;;12.20;99.90;;;;;;5074257;28;20472;-40
2023/04/27 07:30:08;;;;;;;2.05;0.60;;;12.50;98.30;;;;;;5074775;28;19920;-41
2023/04/27 07:32:35;;;;;;;1.80;0.90;;;12.60;99.50;;;;;;5074580;28;20403;-41
2023/04/27 07:35:02;;;;;;;3.20;0.93;;;12.60;98.20;;;;;;5073667;28;20074;-41
2023/04/27 07:37:27;;;;;;;2.25;0.80;;;12.50;99.80;;;;;;5074451;28;20049;-41
2023/04/27 07:39:53;;;;;;;4.27;1.70;;;12.20;99.90;;;;;;5073299;28;20043;-41
2023/04/27 07:42:21;;;;;;;3.13;1.00;;;12.00;99.90;;;;;;5073588;28;20079;-41
2023/04/27 07:44:49;;;;;;;4.22;1.05;;;11.70;99.90;;;;;;5074763;28;20048;-41
2023/04/27 07:47:16;;;;;;;2.42;0.85;;;11.30;99.90;;;;;;5072862;28;20071;-44
2023/04/27 07:49:44;;;;;;;1.88;0.75;;;11.00;99.90;;;;;;5074379;28;20045;-41
2023/04/27 07:52:10;;;;;;;2.50;1.00;;;10.80;99.90;;;;;;5074207;28;20044;-42
2023/04/27 07:54:35;;;;;;;2.80;1.00;;;10.50;99.90;;;;;;5074529;28;20381;-41
2023/04/27 07:57:06;;;;;;;1.77;0.73;;;10.40;99.90;;;;;;5074367;28;20045;-41
2023/04/27 07:59:32;;;;;;;2.80;0.93;;;10.20;99.90;;;;;;5074112;28;20054;-41
2023/04/27 08:01:57;;;;;;;1.93;0.90;;;10.10;99.90;;;;;;5074136;28;20045;-41
2023/04/27 08:04:23;;;;;;;1.33;0.70;;;10.00;99.90;;;;;;5072766;28;20048;-42
2023/04/27 08:06:48;;;;;;;2.20;0.90;;;10.00;99.90;;;;;;5073837;28;20056;-41
2023/04/27 08:09:14;;;;;;;1.93;0.80;;;10.00;99.90;;;;;;5074052;28;20052;-41
2023/04/27 08:11:40;;;;;;;1.57;0.53;;;9.90;99.90;;;;;;5074104;28;20045;-41
2023/04/27 08:14:12;;;;;;;2.50;0.70;;;9.80;99.90;;;;;;5073289;28;20055;-42
2023/04/27 08:16:41;;;;;;;2.28;0.80;;;9.80;99.90;;;;;;5073992;28;20138;-41
2023/04/27 08:19:10;;;;;;;3.15;1.15;;;9.90;99.90;;;;;;5073724;28;20106;-41
2023/04/27 08:21:37;;;;;;;2.42;1.10;;;9.90;99.90;;;;;;5073618;28;20506;-41
2023/04/27 08:24:04;;;;;;;3.47;1.05;;;10.00;99.90;;;;;;5074167;28;20052;-41
2023/04/27 08:26:30;;;;;;;2.28;1.00;;;10.10;99.90;;;;;;5072963;28;20518;-41
2023/04/27 08:28:56;;;;;;;3.63;1.20;;;10.10;99.90;;;;;;5073853;28;20045;-41
2023/04/27 08:31:23;;;;;;;3.13;1.30;;;10.20;99.90;;;;;;5073824;28;20040;-41
2023/04/27 08:33:50;;;;;;;1.85;0.75;;;10.10;99.90;;;;;;5073586;28;20112;-41
2023/04/27 08:36:15;;;;;;;1.45;0.60;;;10.10;99.90;;;;;;5074099;28;20049;-41
2023/04/27 08:38:41;;;;;;;2.17;0.80;;;10.10;99.90;;;;;;5073699;28;20364;-41
2023/04/27 08:41:06;;;;;;;1.93;0.87;;;10.10;99.90;;;;;;5073644;28;20484;-41
2023/04/27 08:43:35;;;;;;;1.53;1.00;;;10.10;99.90;;;;;;5073541;28;20056;-41
2023/04/27 08:46:01;;;;;;;3.05;1.08;;;10.10;99.90;;;;;;5073650;28;20476;-41
2023/04/27 08:48:28;;;;;;;2.20;0.80;;;10.10;99.90;;;;;;5073131;28;20056;-41
2023/04/27 08:50:55;;;;;;;2.63;0.77;;;10.10;99.90;;;;;;5073591;28;20032;-41
2023/04/27 08:53:22;;;;;;;3.70;0.80;;;10.20;99.90;;;;;;5073538;28;20502;-41
2023/04/27 08:55:49;;;;;;;5.00;0.98;;;10.20;99.90;;;;;;5073535;28;20102;-41
2023/04/27 08:58:15;;;;;;;3.08;0.80;;;10.20;99.70;;;;;;5072319;28;20094;-41
2023/04/27 09:00:43;;;;;;;2.33;0.90;;;10.20;99.90;;;;;;5072219;28;20048;-41
2023/04/27 09:03:21;;;;;;;3.95;1.00;;;10.20;99.90;;;;;;5072289;28;20045;-41
2023/04/27 09:05:47;;;;;;;2.60;1.00;;;10.20;99.90;;;;;;5073478;28;20131;-41
2023/04/27 09:08:13;;;;;;;3.30;1.00;;;10.20;99.90;;;;;;5073378;28;20108;-42
2023/04/27 09:10:50;;;;;;;2.63;1.00;;;10.20;99.60;;;;;;5073517;28;20140;-42
2023/04/27 09:13:16;;;;;;;2.25;0.80;;;10.30;99.90;;;;;;5073410;28;20048;-41
2023/04/27 09:15:49;;;;;;;2.60;0.93;;;10.40;96.90;;;;;;5073036;28;20487;-41
2023/04/27 09:18:18;;;;;;;6.07;1.02;;;10.50;98.90;;;;;;5073590;28;20377;-41
2023/04/27 09:20:51;;;;;;;3.35;1.30;;;10.50;99.00;;;;;;5073231;28;20098;-41
2023/04/27 09:23:26;;;;;;;3.63;1.45;;;10.70;99.70;;;;;;5073142;28;20046;-41
2023/04/27 09:25:54;;;;;;;2.92;1.00;;;10.70;98.70;;;;;;5074831;28;20075;-41
2023/04/27 09:28:21;;;;;;;2.30;1.05;;;10.80;99.90;;;;;;5076129;28;20131;-41
2023/04/27 09:30:54;;;;;;;2.53;1.20;;;10.80;99.80;;;;;;5077263;28;20361;-41
2023/04/27 09:33:26;;;;;;;2.95;1.27;;;10.90;98.80;;;;;;5076837;28;20565;-42
2023/04/27 09:35:53;;;;;;;3.25;1.30;;;10.90;99.90;;;;;;5075817;28;20113;-42
2023/04/27 09:38:20;;;;;;;2.42;1.08;;;10.90;99.90;;;;;;5076728;28;20044;-41
2023/04/27 09:40:47;;;;;;;5.03;1.20;;;10.90;99.80;;;;;;5076799;28;20106;-41
2023/04/27 09:43:13;;;;;;;3.90;1.60;;;10.90;99.90;;;;;;5076000;28;20044;-41
2023/04/27 09:45:39;;;;;;;3.50;1.70;;;10.90;99.90;;;;;;5076268;28;20044;-41
2023/04/27 09:48:06;;;;;;;4.00;1.77;;;10.80;99.90;;;;;;5076741;28;20380;-41
2023/04/27 09:50:36;;;;;;;3.13;1.40;;;10.80;99.90;;;;;;5076553;28;20684;-41
2023/04/27 09:53:04;;;;;;;4.82;1.75;;;10.80;99.90;;;;;;5076430;28;20086;-41
2023/04/27 09:55:36;;;;;;;4.55;1.80;;;10.80;98.20;;;;;;5076620;28;20190;-41
2023/04/27 09:58:40;;;;;;;4.55;1.85;;;10.70;98.10;;;;;;5076775;28;20063;-41
2023/04/27 10:01:22;;;;;;;3.95;1.45;;;10.70;95.70;;;;;;5076400;28;20044;-41
2023/04/27 10:04:22;;;;;;;3.65;1.80;;;10.60;96.90;;;;;;5076503;28;20090;-41
2023/04/27 10:07:07;;;;;;;3.08;1.42;;;10.60;97.80;;;;;;5076638;28;20462;-41
2023/04/27 10:09:50;;;;;;;4.25;1.70;;;10.60;98.70;;;;;;5076310;28;20441;-42
2023/04/27 10:12:27;;;;;;;4.50;1.70;;;10.60;99.70;;;;;;5076416;28;20502;-41
2023/04/27 10:14:57;;;;;;;4.57;1.67;;;10.50;99.90;;;;;;5076398;28;20080;-41
2023/04/27 10:17:31;;;;;;;4.88;1.70;;;10.50;99.90;;;;;;5076207;28;20049;-41
2023/04/27 10:20:02;;;;;;;4.90;1.70;;;10.50;99.90;;;;;;5076090;28;20048;-41
2023/04/27 10:22:39;;;;;;;4.35;1.33;;;10.40;99.90;;;;;;5076188;28;20052;-41
2023/04/27 10:25:20;;;;;;;5.72;2.30;;;10.30;99.90;;;;;;5075980;28;20136;-41
2023/04/27 10:27:51;;;;;;;4.53;2.25;;;10.30;99.90;;;;;;5074854;28;20132;-41
2023/04/27 10:30:18;;;;;;;5.30;1.80;;;10.20;99.90;;;;;;5075823;28;20506;-41
2023/04/27 10:32:56;;;;;;;3.33;1.40;;;10.20;99.90;;;;;;5075814;28;20509;-41
2023/04/27 10:35:43;;;;;;;4.93;1.60;;;10.10;99.90;;;;;;5075066;28;20040;-41
2023/04/27 10:38:20;;;;;;;5.47;1.85;;;10.20;99.90;;;;;;5075156;28;20055;-41
2023/04/27 10:41:00;;;;;;;4.72;1.65;;;10.20;99.90;;;;;;5075901;28;20106;-41
2023/04/27 10:43:31;;;;;;;4.57;1.80;;;10.20;99.90;;;;;;5075435;28;20498;-41
2023/04/27 10:46:13;;;;;;;3.80;1.50;;;10.20;99.90;;;;;;5075635;28;20048;-42
2023/04/27 10:48:40;;;;;;;3.83;1.60;;;10.20;99.90;;;;;;5075329;28;20403;-41
2023/04/27 10:51:06;;;;;;;4.40;1.60;;;10.20;99.90;;;;;;5075354;28;20131;-41
2023/04/27 10:53:36;;;;;;;4.20;1.47;;;10.30;99.90;;;;;;5075396;28;20135;-41
2023/04/27 10:56:05;;;;;;;4.55;1.70;;;10.40;99.90;;;;;;5075503;28;20056;-41
2023/04/27 10:58:34;;;;;;;3.83;1.70;;;10.40;99.90;;;;;;5075263;28;20496;-41
2023/04/27 11:01:00;;;;;;;4.30;1.98;;;10.50;99.90;;;;;;5075116;28;20111;-41
2023/04/27 11:03:26;;;;;;;3.90;1.60;;;10.50;99.90;;;;;;5075209;28;20523;-41
2023/04/27 11:06:04;;;;;;;3.80;1.80;;;10.50;99.90;;;;;;5075192;28;20128;-44
2023/04/27 11:08:32;;;;;;;3.22;1.67;;;10.50;99.90;;;;;;5075205;28;20040;-41
2023/04/27 11:10:58;;;;;;;5.25;1.90;;;10.50;99.90;;;;;;5075175;28;20127;-41
2023/04/27 11:13:27;;;;;;;3.77;1.60;;;10.60;99.90;;;;;;5074274;28;20131;-41
2023/04/27 11:15:57;;;;;;;7.10;1.90;;;10.60;99.90;;;;;;5075085;28;20052;-41
2023/04/27 11:18:26;;;;;;;4.22;1.90;;;10.60;99.90;;;;;;5074747;28;20044;-42
2023/04/27 11:21:04;;;;;;;4.78;1.80;;;10.60;99.90;;;;;;5074368;28;20052;-41
2023/04/27 11:23:35;;;;;;;4.60;1.70;;;10.70;99.90;;;;;;5074988;28;20048;-42
2023/04/27 11:26:11;;;;;;;3.80;2.03;;;10.70;99.90;;;;;;5074919;28;20049;-42
2023/04/27 11:28:37;;;;;;;5.93;1.95;;;10.70;99.90;;;;;;5074648;28;20136;-41
2023/04/27 11:31:03;;;;;;;5.15;1.80;;;10.70;99.90;;;;;;5073668;28;20088;-41
2023/04/27 11:33:30;;;;;;;5.20;1.83;;;10.70;99.90;;;;;;5074738;28;20097;-41
2023/04/27 11:35:56;;;;;;;5.45;1.80;;;10.70;99.90;;;;;;5074663;28;20132;-41
2023/04/27 11:38:22;;;;;;;3.53;1.65;;;10.70;99.90;;;;;;5074616;28;20060;-41
2023/04/27 11:41:05;;;;;;;3.80;1.73;;;10.70;99.90;;;;;;5074454;28;20462;-41
2023/04/27 11:43:32;;;;;;;4.85;2.38;;;10.70;99.90;;;;;;5074430;28;20567;-41
2023/04/27 11:46:02;;;;;;;4.45;1.83;;;10.70;99.90;;;;;;5074241;28;20055;-41
2023/04/27 11:48:28;;;;;;;4.32;1.98;;;10.70;99.90;;;;;;5073399;28;20102;-41
2023/04/27 11:50:58;;;;;;;5.27;2.10;;;10.70;99.90;;;;;;5074122;28;20045;-41
2023/04/27 11:53:34;;;;;;;3.95;1.80;;;10.60;99.90;;;;;;5074315;28;20495;-41
2023/04/27 11:56:01;;;;;;;5.95;2.00;;;10.60;99.90;;;;;;5074236;28;20080;-41
2023/04/27 11:58:30;;;;;;;4.65;2.10;;;10.50;99.90;;;;;;5074082;28;20411;-41
2023/04/27 12:00:56;;;;;;;4.63;1.90;;;10.50;99.90;;;;;;5074089;28;20040;-41
2023/04/27 12:03:22;;;;;;;5.47;2.20;;;10.40;99.90;;;;;;5074229;28;20059;-41
2023/04/27 12:05:49;;;;;;;6.83;2.33;;;10.20;99.90;;;;;;5074037;28;20048;-41
2023/04/27 12:08:18;;;;;;;5.63;1.92;;;10.10;99.90;;;;;;5074039;28;20105;-41
2023/04/27 12:10:44;;;;;;;4.60;1.90;;;10.00;99.90;;;;;;5073992;28;20041;-41
2023/04/27 12:13:11;;;;;;;4.05;1.75;;;9.90;99.90;;;;;;5074038;28;20040;-41
2023/04/27 12:15:37;;;;;;;5.03;1.70;;;9.80;99.90;;;;;;5073233;28;20052;-42
2023/04/27 12:18:03;;;;;;;4.95;1.60;;;9.70;99.90;;;;;;5074185;28;20084;-40
2023/04/27 12:20:29;;;;;;;6.23;2.10;;;9.70;99.90;;;;;;5073784;28;20090;-41
2023/04/27 12:22:56;;;;;;;6.28;1.75;;;9.70;99.90;;;;;;5073907;28;20073;-40
2023/04/27 12:25:22;;;;;;;6.50;1.77;;;9.60;99.90;;;;;;5073781;28;20048;-41
2023/04/27 12:27:49;;;;;;;4.53;2.17;;;9.60;99.90;;;;;;5073852;28;20049;-41
2023/04/27 12:30:14;;;;;;;4.40;1.98;;;9.60;99.90;;;;;;5072859;28;20071;-41
2023/04/27 12:32:40;;;;;;;4.13;1.83;;;9.60;99.90;;;;;;5072596;28;20044;-42
2023/04/27 12:35:07;;;;;;;6.27;2.30;;;9.60;99.90;;;;;;5073687;28;20063;-41
2023/04/27 12:37:33;;;;;;;5.53;1.88;;;9.60;99.90;;;;;;5073605;28;20048;-40
2023/04/27 12:39:58;;;;;;;4.85;2.00;;;9.70;99.90;;;;;;5073517;28;20045;-41
2023/04/27 12:42:24;;;;;;;4.73;2.00;;;9.70;99.90;;;;;;5073737;28;20052;-41
2023/04/27 12:44:51;;;;;;;4.20;1.73;;;9.70;99.90;;;;;;5073628;28;20040;-41
2023/04/27 12:47:17;;;;;;;4.95;2.00;;;9.80;99.90;;;;;;5073527;28;20040;-40
2023/04/27 12:49:44;;;;;;;6.32;2.28;;;9.80;99.90;;;;;;5072151;28;20504;-41
2023/04/27 12:52:10;;;;;;;4.43;1.95;;;9.90;99.90;;;;;;5073490;28;20040;-41
2023/04/27 12:54:36;;;;;;;4.60;1.98;;;10.00;99.90;;;;;;5073510;28;20048;-41